Northwest, Indiana
Current Conditions -  °F | °C
As of 4:15 AM on Thursday 27 Nov 2014 (Local Time) from KDCY Reporting Station
Overcast Overcast  
Wind Chill: -5°   Ceiling: 5500
Heat Index: -1°   Visibility: 10mi
Dew Point: -2°   Wind: 7mph
Humidity: 92%   Direction: 350°N
Pressure: 30.2"   Gusts: NA
Location:  38.6165°N, 86.6265°W
Report Text: KDCY 270915Z AUTO 35006KT 10SM OVC055 M01/M02 A3020 RMK AO2 T10101021
Loading
Personal Weather Stations






























Interactive Weather Map New forecast layout! Learn more

10-Day Weather Forecast

Advertisements
Track Severe Weather on mobile